Strona główna
METAR-TAF:

METAR-TAF

Lotnisko :

Baza lotnicza RAF Wideawake

Georgetown, Wyspa Wniebowstąpienia

Szerokość geograficzna: 07-58S, Długość geograficzna: 014-24W, wysokość: 86 m

Aktualna obserwacja pogody

Raport powstał 10 godziny i 45 minut temu, godzina 07:50 UTC
Wiatr 11 kt od południowy wschód
Temperatura 24°C
Wilgotność 65%
Ciśnienie 1017 hPa
Widzialność 10 km lub więcej
Mało chmury na wysokości 2800 ft

METAR: FHAW 170750Z 14011KT 9999 FEW028 24/17 Q1017 NOSIG RMK BLU BLU

czas: 18:35 (18:35 UTC)

Prognoza

Raport powstał 14 godziny i 5 minut temu, godzina 04:30 UTC
Prognoza ważna od 17 godzina 06 UTC do 17 godzina 24 UTC
Wiatr 13 kt od południowy wschód
Widzialność 10 km lub więcej
Rozproszone chmury na wysokości 2500 ft

TAF: FHAW 170430Z 1706/1724 13013KT 9999 SCT025

Obserwacja i prognoza pogody dla ponad 4000 lotnisk (raport METAR i TAF).

Dostępne stacje oznaczono żółtymi i czerwonymi punktami na mapie.

Najedź kursorem aby zobaczyć nazwę stacji.

Kliknij aby zobaczyć obserwacje i prognozy pogody.

Aby zmienić mapę: kliknij na zielony przycisk z czarnym krzyżykiem, aby powiększyć; na zielony przycisk z myślnikiem, aby pomniejszyć; na zielone strzałki, aby przejść do map sąsiednich.


METAR-TAF: